createdAt,value
2019-02-23T08:26:04.500Z,22.67
2019-02-23T08:28:32.815Z,25.67
2019-02-23T08:31:01.166Z,23.50
2019-02-23T08:33:29.580Z,22.40
2019-02-23T08:35:58.005Z,24.20
2019-02-23T08:38:27.261Z,20.77
2019-02-23T08:40:56.255Z,19.00
2019-02-23T08:43:24.591Z,20.47
2019-02-23T08:45:52.961Z,22.80
2019-02-23T08:48:21.335Z,24.43
2019-02-23T08:50:49.962Z,21.10
2019-02-23T08:53:18.332Z,23.03
2019-02-23T08:55:47.164Z,26.53
2019-02-23T08:58:15.584Z,19.40
2019-02-23T09:00:43.921Z,19.03
2019-02-23T09:03:12.259Z,21.37
2019-02-23T09:05:40.647Z,21.13
2019-02-23T09:08:09.029Z,19.00
2019-02-23T09:10:37.379Z,18.43
2019-02-23T09:13:05.909Z,19.37
2019-02-23T09:15:34.254Z,20.00
2019-02-23T09:18:02.551Z,21.87
2019-02-23T09:20:30.903Z,21.40
2019-02-23T09:23:00.387Z,19.00
2019-02-23T09:25:29.008Z,18.93
2019-02-23T09:27:58.674Z,19.20
2019-02-23T09:30:27.016Z,20.43
2019-02-23T09:32:55.347Z,24.07
2019-02-23T09:35:23.655Z,19.03
2019-02-23T09:37:52.209Z,19.93
2019-02-23T09:40:21.152Z,15.97
2019-02-23T09:42:49.497Z,17.73
2019-02-23T09:45:17.935Z,19.40
2019-02-23T09:47:46.257Z,15.53
2019-02-23T09:50:14.645Z,15.80
2019-02-23T09:52:43.054Z,13.50
2019-02-23T09:55:11.597Z,13.27
2019-02-23T09:57:40.014Z,15.70
2019-02-23T10:00:11.636Z,17.27
2019-02-23T10:02:40.055Z,13.60
2019-02-23T10:05:09.292Z,15.70
2019-02-23T10:07:37.699Z,14.40
2019-02-23T10:10:09.561Z,12.87
2019-02-23T10:12:37.928Z,12.47
2019-02-23T10:15:08.628Z,13.37
2019-02-23T10:17:37.149Z,11.20
2019-02-23T10:20:08.667Z,11.37
2019-02-23T10:22:39.490Z,11.87
2019-02-23T10:25:07.791Z,13.90
2019-02-23T10:27:36.097Z,11.40
2019-02-23T10:30:07.232Z,12.30
2019-02-23T10:32:35.533Z,13.93
2019-02-23T10:35:04.813Z,12.90
2019-02-23T10:37:33.191Z,11.27
2019-02-23T10:40:01.607Z,11.43
2019-02-23T10:42:29.988Z,12.57
2019-02-23T10:44:58.394Z,18.50
2019-02-23T10:47:26.759Z,13.90
2019-02-23T10:49:55.177Z,10.70
2019-02-23T10:52:23.464Z,11.67
2019-02-23T10:54:51.865Z,12.43
2019-02-23T10:57:21.843Z,14.10
2019-02-23T10:59:50.218Z,11.53
2019-02-23T11:02:18.776Z,11.13
2019-02-23T11:04:47.125Z,12.13
2019-02-23T11:07:15.633Z,11.50
2019-02-23T11:09:43.959Z,9.50
2019-02-23T11:12:12.496Z,11.10
2019-02-23T11:14:41.052Z,11.23
2019-02-23T11:17:09.506Z,10.50
2019-02-23T11:19:37.805Z,11.30
2019-02-23T11:22:06.226Z,10.13
2019-02-23T11:24:34.606Z,10.20
2019-02-23T11:27:02.992Z,9.50
2019-02-23T11:29:31.285Z,9.37
2019-02-23T11:31:59.606Z,8.80
2019-02-23T11:34:27.979Z,9.00
2019-02-23T11:36:56.289Z,11.23
2019-02-23T11:39:24.595Z,10.07
2019-02-23T11:41:52.978Z,9.10
2019-02-23T11:44:21.281Z,7.40
2019-02-23T11:46:59.870Z,8.40
2019-02-23T11:49:20.017Z,7.17
2019-02-23T11:51:48.350Z,9.60
2019-02-23T11:54:16.706Z,7.90
2019-02-23T11:56:45.106Z,7.47
2019-02-23T11:59:13.409Z,7.40
2019-02-23T12:01:41.904Z,6.93
2019-02-23T12:04:10.369Z,7.50
2019-02-23T12:06:38.854Z,7.50
2019-02-23T12:09:08.398Z,6.30
2019-02-23T12:11:36.815Z,6.20
2019-02-23T12:14:05.136Z,6.70
2019-02-23T12:16:33.513Z,7.57
2019-02-23T12:19:02.212Z,6.03
2019-02-23T12:21:30.663Z,6.30
2019-02-23T12:24:05.971Z,6.30
2019-02-23T12:26:29.560Z,6.20
2019-02-23T12:28:58.062Z,7.17
2019-02-23T12:31:26.522Z,6.60
2019-02-23T12:33:54.826Z,5.90
2019-02-23T12:36:23.149Z,7.83
2019-02-23T12:38:51.536Z,7.30
2019-02-23T12:41:20.063Z,8.77
2019-02-23T12:43:48.650Z,8.37
2019-02-23T12:46:16.946Z,8.53
2019-02-23T12:48:45.289Z,5.93
2019-02-23T12:51:13.591Z,6.60
2019-02-23T12:53:41.972Z,5.90
2019-02-23T12:56:10.523Z,6.73
2019-02-23T12:58:38.923Z,8.03
2019-02-23T13:01:07.222Z,6.80
2019-02-23T13:03:35.501Z,7.70
2019-02-23T13:06:03.964Z,7.00
2019-02-23T13:08:35.585Z,7.47
2019-02-23T13:11:03.943Z,8.47
2019-02-23T13:13:38.406Z,6.80
2019-02-23T13:16:18.580Z,8.53
2019-02-23T13:19:09.738Z,8.33
2019-02-23T13:21:53.188Z,7.83
2019-02-23T13:24:33.536Z,6.33
2019-02-23T13:27:07.795Z,8.00
2019-02-23T13:29:48.411Z,9.00
2019-02-23T13:32:45.906Z,6.23
2019-02-23T13:35:35.919Z,7.37
2019-02-23T13:38:25.663Z,6.63
2019-02-23T13:41:06.210Z,9.70
2019-02-23T13:43:40.345Z,9.60
2019-02-23T13:46:33.292Z,6.57
2019-02-23T13:49:30.623Z,7.73
2019-02-23T13:52:07.935Z,7.23
2019-02-23T13:54:42.159Z,8.10
2019-02-23T13:57:25.897Z,6.70
2019-02-23T14:00:15.355Z,7.33
2019-02-23T14:03:03.514Z,8.47
2019-02-23T14:05:37.914Z,6.70
2019-02-23T14:08:27.374Z,7.03
2019-02-23T14:11:08.264Z,7.13
2019-02-23T14:13:42.416Z,7.37
2019-02-23T14:16:35.234Z,7.70
2019-02-23T14:19:24.796Z,7.83
2019-02-23T14:22:05.286Z,9.13
2019-02-23T14:24:51.787Z,6.60
2019-02-23T14:27:53.543Z,6.87
2019-02-23T14:30:40.526Z,6.13
2019-02-23T14:33:32.955Z,4.90
2019-02-23T14:36:04.422Z,8.67
2019-02-23T14:38:57.211Z,8.10
2019-02-23T14:41:45.367Z,6.33
2019-02-23T14:44:19.847Z,5.70
2019-02-23T14:46:57.019Z,5.30
2019-02-23T14:49:40.344Z,6.47
2019-02-23T14:52:37.709Z,5.50
2019-02-23T14:55:12.082Z,6.90
2019-02-23T14:57:49.393Z,5.60
2019-02-23T15:00:46.808Z,5.30
2019-02-23T15:03:52.128Z,5.77
2019-02-23T15:06:46.049Z,4.73
2019-02-23T15:09:20.556Z,7.27
2019-02-23T15:11:58.067Z,5.17
2019-02-23T15:14:32.736Z,5.47
2019-02-23T15:17:10.324Z,5.10
2019-02-23T15:20:14.791Z,3.80
2019-02-23T15:22:55.141Z,4.07
2019-02-23T15:25:38.966Z,5.00
2019-02-23T15:28:37.780Z,5.03
2019-02-23T15:31:04.570Z,4.77
2019-02-23T15:33:45.087Z,5.60
2019-02-23T15:36:25.427Z,6.07
2019-02-23T15:39:15.393Z,5.70
2019-02-23T15:41:50.095Z,5.67
2019-02-23T15:44:36.782Z,4.60
2019-02-23T15:47:14.077Z,4.60
2019-02-23T15:49:42.924Z,5.07
2019-02-23T15:52:11.474Z,4.00
2019-02-23T15:54:39.847Z,4.37
2019-02-23T15:57:08.194Z,8.67
2019-02-23T15:59:36.811Z,5.83
2019-02-23T16:02:05.218Z,6.13
2019-02-23T16:04:33.668Z,7.60
2019-02-23T16:07:02.026Z,6.97
2019-02-23T16:09:30.353Z,8.63
2019-02-23T16:11:58.761Z,8.83
2019-02-23T16:14:27.422Z,6.10
2019-02-23T16:16:55.766Z,5.37
2019-02-23T16:19:24.109Z,5.10
2019-02-23T16:21:53.085Z,4.47
2019-02-23T16:24:23.030Z,4.27
2019-02-23T16:26:51.444Z,4.70
2019-02-23T16:29:19.892Z,6.20
2019-02-23T16:31:48.574Z,2.93
2019-02-23T16:34:16.873Z,4.23
2019-02-23T16:36:45.211Z,3.33
2019-02-23T16:39:14.155Z,3.80
2019-02-23T16:41:42.476Z,5.13
2019-02-23T16:44:10.776Z,3.10
2019-02-23T16:46:39.115Z,4.57
2019-02-23T16:49:07.533Z,5.10
2019-02-23T16:51:36.083Z,3.67
2019-02-23T16:54:04.427Z,3.57
2019-02-23T16:56:33.958Z,4.43
2019-02-23T16:59:02.521Z,4.60
2019-02-23T17:01:31.990Z,3.60
2019-02-23T17:04:00.641Z,4.20
2019-02-23T17:06:29.011Z,6.57
2019-02-23T17:08:57.347Z,6.70
2019-02-23T17:11:25.652Z,6.00
2019-02-23T17:13:54.276Z,5.50
2019-02-23T17:16:22.699Z,4.80
2019-02-23T17:18:51.147Z,5.30
2019-02-23T17:21:19.586Z,8.07
2019-02-23T17:23:47.917Z,5.57
2019-02-23T17:26:16.230Z,4.50
2019-02-23T17:28:44.577Z,7.47
2019-02-23T17:31:13.014Z,10.10
2019-02-23T17:33:41.477Z,6.53
2019-02-23T17:36:10.238Z,6.80
2019-02-23T17:38:38.871Z,5.67
2019-02-23T17:41:07.599Z,7.03
2019-02-23T17:43:36.158Z,9.23
2019-02-23T17:46:04.741Z,13.03
2019-02-23T17:51:01.473Z,6.83
2019-02-23T17:53:29.995Z,5.80
2019-02-23T17:55:58.567Z,8.63
2019-02-23T17:58:26.978Z,6.17
2019-02-23T18:00:55.388Z,7.63
2019-02-23T18:03:25.304Z,8.80
2019-02-23T18:05:53.900Z,5.20
2019-02-23T18:08:22.281Z,6.20
2019-02-23T18:10:50.590Z,4.73
2019-02-23T18:13:18.982Z,4.70
2019-02-23T18:15:47.307Z,8.50
2019-02-23T18:18:15.691Z,6.07
2019-02-23T18:20:44.607Z,8.93
2019-02-23T18:23:13.075Z,9.10
2019-02-23T18:25:41.629Z,5.40
2019-02-23T18:28:10.011Z,12.93
2019-02-23T18:30:38.720Z,7.10
2019-02-23T18:33:07.114Z,10.20
2019-02-23T18:35:35.799Z,7.53
2019-02-23T18:38:04.336Z,9.13
2019-02-23T18:40:32.770Z,6.27
2019-02-23T18:43:01.359Z,7.17
2019-02-23T18:45:29.790Z,6.27
2019-02-23T18:47:58.674Z,7.63
2019-02-23T18:50:26.982Z,7.23
2019-02-23T18:52:55.651Z,6.80
2019-02-23T18:55:24.063Z,5.80
2019-02-23T18:57:53.580Z,6.70
2019-02-23T19:00:24.380Z,6.00
2019-02-23T19:02:52.207Z,4.97
2019-02-23T19:05:20.758Z,7.37
2019-02-23T19:07:49.340Z,7.23
2019-02-23T19:10:18.999Z,5.90
2019-02-23T19:12:47.606Z,6.07
2019-02-23T19:15:16.053Z,6.07
2019-02-23T19:17:46.313Z,4.47
2019-02-23T19:20:15.372Z,11.50
2019-02-23T19:22:43.893Z,12.70
2019-02-23T19:25:12.395Z,7.90
2019-02-23T19:27:42.478Z,4.87
2019-02-23T19:30:12.723Z,8.97
2019-02-23T19:32:42.326Z,7.30
2019-02-23T19:35:10.702Z,6.03
2019-02-23T19:37:39.013Z,7.60
2019-02-23T19:40:09.297Z,8.90
2019-02-23T19:42:37.813Z,9.27
2019-02-23T19:45:11.746Z,4.57
2019-02-23T19:47:42.067Z,6.57
2019-02-23T19:50:16.560Z,5.30
2019-02-23T19:52:44.919Z,7.37
2019-02-23T19:55:15.894Z,8.33
2019-02-23T19:57:44.306Z,7.27
2019-02-23T20:00:13.370Z,6.07
2019-02-23T20:02:41.930Z,6.37
2019-02-23T20:05:11.266Z,6.77
2019-02-23T20:07:39.739Z,5.50
2019-02-23T20:10:10.088Z,9.33
2019-02-23T20:12:38.521Z,7.80
2019-02-23T20:15:09.285Z,5.93
2019-02-23T20:17:37.609Z,5.70
2019-02-23T20:20:07.276Z,7.33
2019-02-23T20:22:35.685Z,6.47
2019-02-23T20:25:05.171Z,7.13
2019-02-23T20:27:33.667Z,8.80
2019-02-23T20:30:02.312Z,6.63
2019-02-23T20:32:31.325Z,7.10
2019-02-23T20:34:59.900Z,5.97
2019-02-23T20:37:28.458Z,7.10
2019-02-23T20:39:56.965Z,5.80
2019-02-23T20:42:25.590Z,6.20
2019-02-23T20:44:55.588Z,5.87
2019-02-23T20:47:24.006Z,6.97
2019-02-23T20:49:54.230Z,8.07
2019-02-23T20:52:22.626Z,8.60
2019-02-23T20:54:50.932Z,7.33
2019-02-23T20:57:19.496Z,9.10
2019-02-23T20:59:48.168Z,6.93
2019-02-23T21:02:17.027Z,7.80
2019-02-23T21:04:45.583Z,5.83
2019-02-23T21:07:13.937Z,8.60
2019-02-23T21:09:42.248Z,8.40
2019-02-23T21:12:10.791Z,9.90
2019-02-23T21:14:39.115Z,6.90
2019-02-23T21:17:07.547Z,9.50
2019-02-23T21:19:36.048Z,9.10
2019-02-23T21:22:04.563Z,10.00
2019-02-23T21:24:32.888Z,8.90
2019-02-23T21:27:01.321Z,5.73
2019-02-23T21:29:29.673Z,6.50
2019-02-23T21:31:59.611Z,9.10
2019-02-23T21:34:27.995Z,14.63
2019-02-23T21:36:58.118Z,7.77
2019-02-23T21:39:26.474Z,9.80
2019-02-23T21:41:54.817Z,7.33
2019-02-23T21:44:23.275Z,6.83
2019-02-23T21:46:51.576Z,4.80
2019-02-23T21:49:19.856Z,5.27
2019-02-23T21:51:48.244Z,5.90
2019-02-23T21:54:16.807Z,6.67
2019-02-23T21:56:45.256Z,7.03
2019-02-23T21:59:13.618Z,6.40
2019-02-23T22:01:42.415Z,6.80
2019-02-23T22:04:10.805Z,6.33
2019-02-23T22:06:39.084Z,5.70
2019-02-23T22:09:07.861Z,8.20
2019-02-23T22:11:36.180Z,7.37
2019-02-23T22:14:04.497Z,6.23
2019-02-23T22:16:32.859Z,5.87
2019-02-23T22:19:01.258Z,5.33
2019-02-23T22:21:29.725Z,4.97
2019-02-23T22:23:58.080Z,7.50
2019-02-23T22:26:26.341Z,7.53
2019-02-23T22:28:54.729Z,7.70
2019-02-23T22:31:23.033Z,6.10
2019-02-23T22:33:51.336Z,7.50
2019-02-23T22:36:19.628Z,5.00
2019-02-23T22:38:48.101Z,5.30
2019-02-23T22:41:16.579Z,3.67
2019-02-23T22:43:45.000Z,3.87
2019-02-23T22:46:13.536Z,5.43
2019-02-23T22:48:42.028Z,4.30
2019-02-23T22:51:10.390Z,5.37
2019-02-23T22:53:38.710Z,5.03
2019-02-23T22:56:07.000Z,6.10
2019-02-23T22:58:35.384Z,3.93
2019-02-23T23:01:04.316Z,4.00
2019-02-23T23:03:32.708Z,7.27
2019-02-23T23:06:01.006Z,7.57
2019-02-23T23:08:29.343Z,5.60
2019-02-23T23:10:57.640Z,4.70
2019-02-23T23:13:26.035Z,4.27
2019-02-23T23:15:54.481Z,5.13
2019-02-23T23:18:22.958Z,4.60
2019-02-23T23:20:51.292Z,5.70
2019-02-23T23:23:19.607Z,4.20
2019-02-23T23:25:48.019Z,4.87
2019-02-23T23:28:16.391Z,4.67
2019-02-23T23:30:45.736Z,4.27
2019-02-23T23:33:14.087Z,3.43
2019-02-23T23:35:42.413Z,4.50
2019-02-23T23:38:10.700Z,4.77
2019-02-23T23:40:39.030Z,4.90
2019-02-23T23:43:07.333Z,6.27
2019-02-23T23:45:35.648Z,5.33
2019-02-23T23:48:04.202Z,5.40
2019-02-23T23:50:32.731Z,3.33
2019-02-23T23:53:01.199Z,4.17
2019-02-23T23:55:29.602Z,7.10
2019-02-23T23:57:58.702Z,3.17
